Time;durP1;ratioP1;P1;durP2;ratioP2;P2;SDS_P1;SDS_P2;PMS_P1;PMS_P2;Temp;Humidity;BMP_temperature;BMP_pressure;BME280_temperature;BME280_humidity;BME280_pressure;Samples;Min_cycle;Max_cycle;Signal;HPM_P1;HPM_P2
2023/08/28 00:00:14;1114688.00;3.72;1936.71;107979.00;0.36;187.34;;;;;21.50;2.50;;;;;;1274326;40;3333;-89
2023/08/28 00:02:42;802461.00;2.67;1385.42;57219.00;0.19;99.67;;;;;21.60;4.00;;;;;;2276157;56;3797;-88
2023/08/28 00:15:02;1441053.00;4.80;2532.68;0.00;0.00;0.62;;;;;21.50;1.30;;;;;;2270392;61;1381;-89
2023/08/28 00:20:00;1316621.00;4.39;2302.56;0.00;0.00;0.62;;;;;21.20;5.00;;;;;;2272491;55;3569;-87
2023/08/28 00:27:33;1396051.00;4.65;2449.00;0.00;0.00;0.62;;;;;21.50;2.00;;;;;;2275193;41;3445;-88
2023/08/28 00:37:29;1353310.00;4.51;2370.01;0.00;0.00;0.62;;;;;21.20;3.20;;;;;;1958006;56;3487;-88
2023/08/28 01:02:26;1158286.00;3.86;2014.98;0.00;0.00;0.62;;;;;21.60;1.90;;;;;;2284902;56;3613;-88
2023/08/28 01:07:26;919756.00;3.07;1590.84;0.00;0.00;0.62;;;;;21.90;3.40;;;;;;2276452;55;3748;-90
2023/08/28 01:10:05;559991.00;1.87;965.18;0.00;0.00;0.62;;;;;22.10;4.80;;;;;;2291844;40;3653;-88
2023/08/28 01:15:10;1099988.00;3.67;1910.40;0.00;0.00;0.62;;;;;22.00;1.00;;;;;;785992;56;3595;-87
2023/08/28 01:20:12;1125359.00;3.75;1955.83;0.00;0.00;0.62;;;;;21.60;1.80;;;;;;2301411;55;3616;-89
2023/08/28 01:22:46;269766.00;0.90;465.94;0.00;0.00;0.62;;;;;21.70;4.80;;;;;;2308873;55;3849;-88
2023/08/28 01:30:17;1147578.00;3.83;1995.72;0.00;0.00;0.62;;;;;22.10;5.10;;;;;;1388072;40;3618;-89
2023/08/28 01:45:17;915977.00;3.05;1584.20;14886.00;0.05;26.41;;;;;21.90;3.80;;;;;;2280182;55;3677;-89
2023/08/28 01:52:43;989672.00;3.30;1714.19;0.00;0.00;0.62;;;;;22.30;3.10;;;;;;2291890;55;3759;-88
2023/08/28 01:57:39;1007527.00;3.36;1745.81;0.00;0.00;0.62;;;;;22.20;2.00;;;;;;2295771;55;3713;-89
2023/08/28 02:02:43;768327.00;2.56;1325.94;0.00;0.00;0.62;;;;;21.90;1.00;;;;;;2269755;61;1420;-87
2023/08/28 02:05:10;190378.00;0.63;329.36;0.00;0.00;0.62;;;;;22.40;3.40;;;;;;2268232;61;1005;-87
2023/08/28 02:10:07;686393.00;2.29;1183.65;0.00;0.00;0.62;;;;;22.40;1.60;;;;;;2272839;40;3514;-89
2023/08/28 02:12:34;247254.00;0.82;427.23;0.00;0.00;0.62;;;;;22.20;2.90;;;;;;2268147;61;1448;-87
2023/08/28 02:15:01;311401.00;1.04;537.52;79948.00;0.27;138.95;;;;;22.20;2.50;;;;;;2268083;61;1697;-88
2023/08/28 02:17:28;176926.00;0.59;306.20;0.00;0.00;0.62;;;;;22.10;3.60;;;;;;2268137;61;980;-86
2023/08/28 02:22:24;730973.00;2.44;1260.99;0.00;0.00;0.62;;;;;22.00;3.10;;;;;;2269720;61;1410;-87
2023/08/28 02:24:51;146462.00;0.49;253.71;0.00;0.00;0.62;;;;;22.30;4.30;;;;;;2276711;40;3547;-88
2023/08/28 02:27:18;202783.00;0.68;350.71;0.00;0.00;0.62;;;;;22.40;2.80;;;;;;2270070;55;3747;-89
2023/08/28 02:42:15;749624.00;2.50;1293.40;0.00;0.00;0.62;;;;;21.80;2.60;;;;;;2271882;55;3746;-89
2023/08/28 02:44:41;171938.00;0.57;297.60;0.00;0.00;0.62;;;;;21.90;3.60;;;;;;2276028;40;3775;-88
2023/08/28 02:49:42;808312.00;2.69;1395.62;0.00;0.00;0.62;;;;;22.50;3.60;;;;;;2274542;55;3626;-87
2023/08/28 02:52:09;138631.00;0.46;240.21;0.00;0.00;0.62;;;;;22.20;2.60;;;;;;2268021;61;1380;-86
2023/08/28 02:54:35;316049.00;1.05;545.51;0.00;0.00;0.62;;;;;22.10;2.50;;;;;;2275128;56;3801;-88
2023/08/28 02:59:33;982086.00;3.27;1700.77;0.00;0.00;0.62;;;;;21.70;3.60;;;;;;2280433;40;3722;-88
2023/08/28 03:31:51;898749.00;3.00;1553.92;0.00;0.00;0.62;;;;;21.70;3.60;;;;;;2298483;40;3715;-88
2023/08/28 03:34:18;333806.00;1.11;576.03;0.00;0.00;0.62;;;;;21.60;3.90;;;;;;2332384;40;3716;-89
2023/08/28 03:44:13;1262527.00;4.21;2203.69;0.00;0.00;0.62;;;;;21.50;7.30;;;;;;1558791;40;3454;-90
2023/08/28 03:46:40;215974.00;0.72;373.42;0.00;0.00;0.62;;;;;21.70;5.00;;;;;;2300040;56;3803;-88
2023/08/28 03:49:08;392823.00;1.31;677.47;0.00;0.00;0.62;;;;;21.80;5.90;;;;;;2269290;40;3601;-87
2023/08/28 03:51:35;380052.00;1.27;655.51;0.00;0.00;0.62;;;;;22.00;5.20;;;;;;2298851;56;3766;-88
2023/08/28 04:06:31;1016297.00;3.39;1761.36;0.00;0.00;0.62;;;;;21.60;4.30;;;;;;2270557;61;1244;-88
2023/08/28 04:11:28;118860.00;0.40;206.12;0.00;0.00;0.62;;;;;21.70;4.80;;;;;;2271635;61;1314;-90
2023/08/28 04:13:54;125688.00;0.42;217.89;0.00;0.00;0.62;;;;;21.90;5.40;;;;;;2269513;61;1091;-89
2023/08/28 04:16:21;0.00;0.00;0.62;0.00;0.00;0.62;;;;;22.10;6.00;;;;;;2268930;61;1123;-89
2023/08/28 04:21:18;908884.00;3.03;1571.73;0.00;0.00;0.62;;;;;21.80;3.30;;;;;;1560619;56;3587;-88
2023/08/28 04:23:46;184787.00;0.62;319.73;0.00;0.00;0.62;;;;;21.80;3.80;;;;;;2268678;61;1073;-89
2023/08/28 04:26:13;90630.00;0.30;157.40;0.00;0.00;0.62;;;;;21.90;5.70;;;;;;2292776;40;3573;-87
2023/08/28 04:31:10;328655.00;1.10;567.17;0.00;0.00;0.62;;;;;22.40;5.10;;;;;;2270839;61;1424;-89
2023/08/28 04:33:37;116154.00;0.39;201.45;0.00;0.00;0.62;;;;;22.40;5.00;;;;;;2275678;56;3822;-89
2023/08/28 04:38:34;652069.00;2.17;1124.22;0.00;0.00;0.62;;;;;22.30;4.20;;;;;;828359;56;3589;-90
2023/08/28 04:41:02;721735.00;2.41;1244.95;0.00;0.00;0.62;;;;;22.00;4.60;;;;;;2276113;40;3506;-88
2023/08/28 04:43:29;184360.00;0.61;319.00;0.00;0.00;0.62;;;;;22.00;4.90;;;;;;2284917;40;3752;-90
2023/08/28 04:55:52;643929.00;2.15;1110.13;0.00;0.00;0.62;;;;;21.60;4.90;;;;;;2273405;40;3534;-89
2023/08/28 05:08:26;956898.00;3.19;1656.28;71096.00;0.24;123.65;;;;;22.20;5.20;;;;;;2270255;61;1421;-88
2023/08/28 05:13:25;1686266.00;5.62;2998.77;72822.00;0.24;126.64;;;;;22.20;2.60;;;;;;1562118;56;3681;-89
2023/08/28 05:25:57;1832621.00;6.11;3286.11;0.00;0.00;0.62;;;;;21.90;3.80;;;;;;1543925;56;3564;-88
2023/08/28 05:40:48;1166293.00;3.89;2029.39;17485.00;0.06;30.91;;;;;21.60;5.00;;;;;;2287478;40;3461;-88
2023/08/28 06:00:37;595716.00;1.99;1026.82;0.00;0.00;0.62;;;;;22.20;5.80;;;;;;2270125;61;1912;-89
2023/08/28 06:15:29;381280.00;1.27;657.63;0.00;0.00;0.62;;;;;22.60;4.70;;;;;;2270123;61;1401;-87
2023/08/28 06:17:58;163443.00;0.54;282.97;0.00;0.00;0.62;;;;;22.60;5.60;;;;;;2292639;40;3585;-90
2023/08/28 06:25:23;788636.00;2.63;1361.31;0.00;0.00;0.62;;;;;21.90;3.80;;;;;;1529836;40;3453;-90
2023/08/28 06:30:25;564401.00;1.88;972.79;0.00;0.00;0.62;;;;;21.00;5.60;;;;;;1638226;41;3429;-88
2023/08/28 06:57:54;670706.00;2.24;1156.48;0.00;0.00;0.62;;;;;20.70;9.20;;;;;;2272696;40;3531;-88
2023/08/28 07:00:21;193684.00;0.65;335.05;0.00;0.00;0.62;;;;;21.00;5.40;;;;;;2268718;61;1992;-86
2023/08/28 07:02:48;77865.00;0.26;135.35;0.00;0.00;0.62;;;;;20.70;5.40;;;;;;2269280;61;1616;-87
2023/08/28 07:05:16;244702.00;0.82;422.84;22132.00;0.07;38.96;;;;;20.50;5.30;;;;;;2276877;40;3597;-87
2023/08/28 07:07:43;13542.00;0.05;24.09;0.00;0.00;0.62;;;;;19.90;6.10;;;;;;2269201;61;1019;-88
2023/08/28 07:10:10;166045.00;0.55;287.45;0.00;0.00;0.62;;;;;19.80;10.70;;;;;;2273412;40;3757;-87
2023/08/28 07:12:37;324505.00;1.08;560.04;0.00;0.00;0.62;;;;;19.70;9.10;;;;;;2268842;61;1651;-88
2023/08/28 07:17:34;605746.00;2.02;1044.14;97793.00;0.33;169.76;;;;;19.70;8.70;;;;;;2270942;61;1397;-85
2023/08/28 07:22:29;545351.00;1.82;939.95;0.00;0.00;0.62;;;;;19.40;9.30;;;;;;2282946;40;3714;-89
2023/08/28 07:24:56;166703.00;0.56;288.59;0.00;0.00;0.62;;;;;19.00;11.00;;;;;;2292467;40;3599;-88
2023/08/28 07:27:23;149671.00;0.50;259.24;0.00;0.00;0.62;;;;;18.80;11.40;;;;;;2269090;61;1805;-87
2023/08/28 07:29:50;151695.00;0.51;262.73;0.00;0.00;0.62;;;;;19.30;16.00;;;;;;2269040;61;1669;-86
2023/08/28 07:32:17;547788.00;1.83;944.15;130585.00;0.44;226.34;;;;;19.40;13.50;;;;;;2269109;61;1269;-86
2023/08/28 07:34:46;108566.00;0.36;188.36;0.00;0.00;0.62;;;;;19.40;11.80;;;;;;2269067;61;1591;-86
2023/08/28 07:37:12;66847.00;0.22;116.31;0.00;0.00;0.62;;;;;19.40;12.70;;;;;;2268908;61;1070;-86
2023/08/28 07:39:39;118633.00;0.40;205.72;0.00;0.00;0.62;;;;;19.60;14.00;;;;;;2268880;61;2016;-88
2023/08/28 07:42:06;74163.00;0.25;128.95;0.00;0.00;0.62;;;;;20.00;11.80;;;;;;2269135;61;1390;-86
2023/08/28 07:44:33;277886.00;0.93;479.90;0.00;0.00;0.62;;;;;19.80;11.20;;;;;;2269059;61;914;-88
2023/08/28 07:47:00;158437.00;0.53;274.35;0.00;0.00;0.62;;;;;19.30;10.80;;;;;;2269121;61;1600;-88
2023/08/28 07:49:27;307765.00;1.03;531.27;0.00;0.00;0.62;;;;;19.20;12.30;;;;;;2269090;61;905;-87
2023/08/28 07:51:57;337368.00;1.12;582.15;26578.00;0.09;46.66;;;;;19.70;11.60;;;;;;2269093;61;1582;-89
2023/08/28 07:54:24;0.00;0.00;0.62;0.00;0.00;0.62;;;;;20.00;12.30;;;;;;2269047;61;1007;-87
2023/08/28 07:56:51;15170.00;0.05;26.91;0.00;0.00;0.62;;;;;20.20;8.70;;;;;;2269035;61;2400;-87
2023/08/28 07:59:18;58615.00;0.20;102.08;0.00;0.00;0.62;;;;;19.80;10.70;;;;;;2269013;61;1924;-87
2023/08/28 08:04:14;142370.00;0.47;246.66;0.00;0.00;0.62;;;;;19.90;10.50;;;;;;2270872;61;1412;-88
2023/08/28 08:06:41;168320.00;0.56;291.37;0.00;0.00;0.62;;;;;19.70;11.50;;;;;;2268952;61;1483;-86
2023/08/28 08:09:10;50249.00;0.17;87.62;0.00;0.00;0.62;;;;;19.80;9.80;;;;;;2268919;61;1080;-89
2023/08/28 08:11:37;0.00;0.00;0.62;0.00;0.00;0.62;;;;;20.30;11.20;;;;;;2268950;61;1392;-87
2023/08/28 08:14:04;0.00;0.00;0.62;0.00;0.00;0.62;;;;;20.70;8.00;;;;;;2269038;61;1110;-87
2023/08/28 08:16:31;47133.00;0.16;82.23;0.00;0.00;0.62;;;;;20.30;7.80;;;;;;2270792;55;3758;-87
2023/08/28 08:18:58;61869.00;0.21;107.71;0.00;0.00;0.62;;;;;19.50;8.60;;;;;;2269070;61;1005;-87
2023/08/28 08:21:25;47833.00;0.16;83.44;0.00;0.00;0.62;;;;;18.90;10.80;;;;;;2268777;61;2005;-88
2023/08/28 08:23:52;114271.00;0.38;198.20;0.00;0.00;0.62;;;;;18.80;12.80;;;;;;2269074;61;1558;-88
2023/08/28 08:26:20;27835.00;0.09;48.84;0.00;0.00;0.62;;;;;18.80;12.10;;;;;;2268850;61;1469;-87
2023/08/28 08:28:47;4909.00;0.02;9.13;0.00;0.00;0.62;;;;;18.70;11.50;;;;;;2268966;61;1610;-86
2023/08/28 08:31:14;77204.00;0.26;134.21;0.00;0.00;0.62;;;;;19.10;12.20;;;;;;2268945;61;1272;-87
2023/08/28 08:33:44;115401.00;0.38;200.15;0.00;0.00;0.62;;;;;19.30;10.00;;;;;;2268975;61;1574;-87
2023/08/28 08:36:13;243096.00;0.81;420.08;55548.00;0.19;96.78;;;;;19.30;9.90;;;;;;2268970;61;1128;-87
2023/08/28 08:38:40;53530.00;0.18;93.29;0.00;0.00;0.62;;;;;18.60;10.70;;;;;;2268884;61;1594;-87
2023/08/28 08:41:09;145163.00;0.48;251.47;0.00;0.00;0.62;;;;;18.20;11.30;;;;;;2268947;61;1930;-88
2023/08/28 08:43:37;144069.00;0.48;249.59;0.00;0.00;0.62;;;;;18.30;11.60;;;;;;2268951;61;1001;-86
2023/08/28 08:46:06;148123.00;0.49;256.57;0.00;0.00;0.62;;;;;18.20;12.00;;;;;;2268839;61;1135;-88
2023/08/28 08:48:36;203372.00;0.68;351.73;0.00;0.00;0.62;;;;;18.40;11.50;;;;;;2268761;61;1106;-87
2023/08/28 08:51:04;96776.00;0.32;168.01;0.00;0.00;0.62;;;;;18.50;11.00;;;;;;2268903;61;1404;-87
2023/08/28 08:53:42;130784.00;0.44;226.68;0.00;0.00;0.62;;;;;18.40;11.20;;;;;;2268982;61;1025;-86
2023/08/28 08:56:12;177362.00;0.59;306.95;0.00;0.00;0.62;;;;;18.50;10.80;;;;;;2268951;61;947;-85
2023/08/28 08:58:42;323167.00;1.08;557.74;31764.00;0.11;55.64;;;;;18.80;11.00;;;;;;2268748;61;963;-86
2023/08/28 09:01:09;198591.00;0.66;343.50;0.00;0.00;0.62;;;;;18.80;9.20;;;;;;2268750;61;2003;-87
2023/08/28 09:03:38;148043.00;0.49;256.43;0.00;0.00;0.62;;;;;18.40;10.70;;;;;;2268707;61;1626;-87
2023/08/28 09:06:06;199196.00;0.66;344.54;0.00;0.00;0.62;;;;;18.70;9.70;;;;;;2268965;61;1051;-87
2023/08/28 09:08:35;282362.00;0.94;487.60;51212.00;0.17;89.28;;;;;18.90;10.00;;;;;;2268917;61;1011;-87
2023/08/28 09:11:04;212539.00;0.71;367.50;0.00;0.00;0.62;;;;;18.60;10.70;;;;;;2268751;61;1580;-86
2023/08/28 09:13:31;57108.00;0.19;99.48;0.00;0.00;0.62;;;;;18.30;10.20;;;;;;2268849;61;1118;-85
2023/08/28 09:16:00;98195.00;0.33;170.46;0.00;0.00;0.62;;;;;18.60;9.80;;;;;;2268694;61;1043;-87
2023/08/28 09:18:27;191238.00;0.64;330.84;0.00;0.00;0.62;;;;;18.50;9.50;;;;;;2268738;61;1560;-86
2023/08/28 09:21:07;165666.00;0.55;286.80;0.00;0.00;0.62;;;;;18.60;9.10;;;;;;2318561;41;3786;-86
2023/08/28 09:23:34;263710.00;0.88;455.53;0.00;0.00;0.62;;;;;18.80;9.40;;;;;;2268613;61;1146;-87
2023/08/28 09:26:01;163966.00;0.55;283.87;0.00;0.00;0.62;;;;;18.90;8.80;;;;;;2268660;61;1127;-87
2023/08/28 09:28:28;193395.00;0.64;334.55;0.00;0.00;0.62;;;;;18.70;8.20;;;;;;2268815;61;1704;-86
2023/08/28 09:30:55;236665.00;0.79;409.01;856.00;0.00;2.10;;;;;18.50;9.30;;;;;;2268619;61;2176;-87
2023/08/28 09:33:24;481234.00;1.60;829.52;64021.00;0.21;111.43;;;;;18.90;9.10;;;;;;2268509;61;1179;-87
2023/08/28 09:35:51;586957.00;1.96;1011.70;0.00;0.00;0.62;;;;;18.80;9.30;;;;;;2268584;61;1504;-86
2023/08/28 09:38:19;210205.00;0.70;363.49;0.00;0.00;0.62;;;;;18.90;9.00;;;;;;2268772;61;1026;-88
2023/08/28 09:40:48;190353.00;0.63;329.32;0.00;0.00;0.62;;;;;19.00;8.40;;;;;;2273487;55;3591;-87
2023/08/28 09:43:16;208878.00;0.70;361.20;0.00;0.00;0.62;;;;;19.30;7.80;;;;;;2268781;61;922;-87
2023/08/28 09:45:44;256567.00;0.86;443.24;24576.00;0.08;43.19;;;;;19.20;10.00;;;;;;2268802;61;987;-86
2023/08/28 09:48:13;120202.00;0.40;208.43;0.00;0.00;0.62;;;;;19.80;7.20;;;;;;2268749;61;1043;-87
2023/08/28 09:50:43;196871.00;0.66;340.54;0.00;0.00;0.62;;;;;20.00;5.50;;;;;;2268750;61;1307;-86
2023/08/28 09:53:12;89289.00;0.30;155.08;0.00;0.00;0.62;;;;;20.00;6.20;;;;;;2268726;61;1151;-86
2023/08/28 09:55:40;216664.00;0.72;374.60;0.00;0.00;0.62;;;;;20.20;5.00;;;;;;2268688;61;1543;-86
2023/08/28 09:58:11;133123.00;0.44;230.71;0.00;0.00;0.62;;;;;19.70;8.20;;;;;;2268585;61;1032;-87
2023/08/28 10:00:39;165357.00;0.55;286.27;0.00;0.00;0.62;;;;;19.50;5.80;;;;;;2268622;61;1980;-85
2023/08/28 10:03:07;164944.00;0.55;285.56;0.00;0.00;0.62;;;;;19.80;6.00;;;;;;2268617;61;985;-86
2023/08/28 10:05:37;197791.00;0.66;342.12;0.00;0.00;0.62;;;;;19.10;5.60;;;;;;2268751;61;993;-86
2023/08/28 10:08:08;190346.00;0.63;329.30;0.00;0.00;0.62;;;;;19.10;5.40;;;;;;2302559;40;3753;-87
2023/08/28 10:10:35;220857.00;0.74;381.82;57208.00;0.19;99.65;;;;;19.30;5.70;;;;;;2268482;61;1790;-85
2023/08/28 10:13:05;119509.00;0.40;207.24;0.00;0.00;0.62;;;;;19.80;4.10;;;;;;2268655;61;1037;-86
2023/08/28 10:15:34;166636.00;0.56;288.47;0.00;0.00;0.62;;;;;20.10;2.50;;;;;;2268500;61;1041;-85
2023/08/28 10:18:08;185983.00;0.62;321.79;0.00;0.00;0.62;;;;;19.90;2.40;;;;;;2268589;61;1140;-88
2023/08/28 10:20:36;181914.00;0.61;314.79;0.00;0.00;0.62;;;;;19.90;1.70;;;;;;2268671;61;1922;-88
2023/08/28 10:23:06;521346.00;1.74;898.58;133640.00;0.45;231.61;;;;;19.70;2.20;;;;;;2268604;61;1668;-86
2023/08/28 10:25:34;155069.00;0.52;268.54;0.00;0.00;0.62;;;;;19.40;3.30;;;;;;2282733;40;3742;-86
2023/08/28 10:28:03;1339918.00;4.47;2345.35;0.00;0.00;0.62;;;;;19.10;4.10;;;;;;2270369;61;1867;-86
2023/08/28 10:33:00;986047.00;3.29;1707.77;0.00;0.00;0.62;;;;;19.10;4.60;;;;;;2262363;61;1386;-90
2023/08/28 10:35:28;357363.00;1.19;616.52;47588.00;0.16;83.01;;;;;19.40;4.60;;;;;;2260523;61;987;-86
2023/08/28 10:37:56;121342.00;0.40;210.40;0.00;0.00;0.62;;;;;19.30;5.20;;;;;;2269096;55;3795;-87
2023/08/28 10:40:24;259474.00;0.86;448.24;0.00;0.00;0.62;;;;;19.00;4.10;;;;;;2268484;61;2010;-86
2023/08/28 10:45:20;1250119.00;4.17;2181.10;0.00;0.00;0.62;;;;;18.90;4.80;;;;;;2270301;61;1405;-87
2023/08/28 10:47:50;186953.00;0.62;323.46;0.00;0.00;0.62;;;;;19.00;5.30;;;;;;2268551;61;1545;-86
2023/08/28 10:50:17;569571.00;1.90;981.71;0.00;0.00;0.62;;;;;19.00;3.60;;;;;;2313423;40;3557;-84
2023/08/28 10:52:46;293544.00;0.98;506.82;0.00;0.00;0.62;;;;;19.10;5.30;;;;;;2264317;61;1781;-86
2023/08/28 10:55:18;238469.00;0.79;412.12;0.00;0.00;0.62;;;;;19.40;4.60;;;;;;2264429;61;1025;-86
2023/08/28 10:57:50;230966.00;0.77;399.21;0.00;0.00;0.62;;;;;19.20;3.90;;;;;;2264471;61;1611;-86
2023/08/28 11:00:20;318926.00;1.06;550.45;0.00;0.00;0.62;;;;;19.20;3.10;;;;;;2264505;61;1919;-84
2023/08/28 11:03:07;112649.00;0.38;195.40;0.00;0.00;0.62;;;;;19.50;2.20;;;;;;2264236;61;1463;-85
2023/08/28 11:05:35;36337.00;0.12;63.55;0.00;0.00;0.62;;;;;19.20;3.00;;;;;;2264507;61;1171;-85
2023/08/28 11:08:04;256170.00;0.85;442.56;63334.00;0.21;110.24;;;;;19.00;5.10;;;;;;2264446;61;1061;-84
2023/08/28 11:10:31;127949.00;0.43;221.79;0.00;0.00;0.62;;;;;19.20;4.90;;;;;;2264449;61;1381;-86
2023/08/28 11:13:03;226462.00;0.75;391.46;34768.00;0.12;60.84;;;;;19.10;3.70;;;;;;2264435;61;1084;-85
2023/08/28 11:15:34;0.00;0.00;0.62;0.00;0.00;0.62;;;;;19.20;3.50;;;;;;2264480;61;1137;-87
2023/08/28 11:18:26;187234.00;0.62;323.95;0.00;0.00;0.62;;;;;19.30;2.70;;;;;;2264572;61;1022;-85
2023/08/28 11:20:53;78255.00;0.26;136.02;0.00;0.00;0.62;;;;;19.60;2.80;;;;;;2264401;61;2017;-85
2023/08/28 11:23:23;373066.00;1.24;643.51;0.00;0.00;0.62;;;;;19.60;2.40;;;;;;2264534;61;1012;-86
2023/08/28 11:25:51;527626.00;1.76;909.40;0.00;0.00;0.62;;;;;19.50;2.50;;;;;;2264456;61;1538;-86
2023/08/28 11:28:29;437481.00;1.46;754.25;0.00;0.00;0.62;;;;;19.70;3.50;;;;;;2264416;61;965;-89
2023/08/28 11:31:03;129183.00;0.43;223.92;0.00;0.00;0.62;;;;;19.40;1.90;;;;;;2264349;61;1292;-86
2023/08/28 11:33:39;313834.00;1.05;541.70;45447.00;0.15;79.31;;;;;19.00;2.30;;;;;;2264481;61;1531;-85
2023/08/28 11:36:08;104564.00;0.35;181.45;0.00;0.00;0.62;;;;;19.00;4.50;;;;;;2264376;61;1587;-87
2023/08/28 11:38:35;10010.00;0.03;17.97;0.00;0.00;0.62;;;;;18.80;3.20;;;;;;2264330;61;945;-86
2023/08/28 11:41:05;127552.00;0.43;221.11;0.00;0.00;0.62;;;;;18.60;5.00;;;;;;2264397;61;2002;-87
2023/08/28 11:43:37;51395.00;0.17;89.60;0.00;0.00;0.62;;;;;18.90;6.50;;;;;;2264189;61;1709;-85
2023/08/28 11:46:05;7192.00;0.02;13.08;0.00;0.00;0.62;;;;;19.30;5.50;;;;;;2264702;61;1033;-86
2023/08/28 11:48:34;139643.00;0.47;241.96;0.00;0.00;0.62;;;;;19.50;4.60;;;;;;2265059;61;1057;-86
2023/08/28 11:51:03;106611.00;0.36;184.98;0.00;0.00;0.62;;;;;19.50;6.00;;;;;;2265186;61;1741;-86
2023/08/28 11:53:31;0.00;0.00;0.62;0.00;0.00;0.62;;;;;20.00;4.70;;;;;;2265140;61;1011;-87
2023/08/28 11:56:00;118526.00;0.40;205.54;0.00;0.00;0.62;;;;;20.60;3.80;;;;;;2265289;61;1002;-87
2023/08/28 11:58:27;39895.00;0.13;69.71;0.00;0.00;0.62;;;;;20.90;2.50;;;;;;2265301;61;1072;-86
2023/08/28 12:00:54;0.00;0.00;0.62;0.00;0.00;0.62;;;;;20.50;2.60;;;;;;2265088;61;1920;-87
2023/08/28 12:03:23;96959.00;0.32;168.32;0.00;0.00;0.62;;;;;20.20;4.40;;;;;;2265124;61;1088;-87
2023/08/28 12:05:49;101923.00;0.34;176.89;0.00;0.00;0.62;;;;;19.90;6.10;;;;;;2265082;61;1079;-85
2023/08/28 12:08:17;79361.00;0.26;137.93;0.00;0.00;0.62;;;;;19.90;2.80;;;;;;2265191;61;1052;-85
2023/08/28 12:10:44;0.00;0.00;0.62;0.00;0.00;0.62;;;;;20.00;4.10;;;;;;2265284;61;1352;-86
2023/08/28 12:13:11;0.00;0.00;0.62;0.00;0.00;0.62;;;;;19.70;2.70;;;;;;2265138;61;1114;-87
2023/08/28 12:15:38;182369.00;0.61;315.57;51113.00;0.17;89.11;;;;;19.50;4.40;;;;;;2265288;61;1057;-88
2023/08/28 12:18:06;210181.00;0.70;363.45;0.00;0.00;0.62;;;;;19.10;8.10;;;;;;2265235;61;954;-87
2023/08/28 12:20:37;119143.00;0.40;206.60;0.00;0.00;0.62;;;;;19.00;9.40;;;;;;2265017;61;1994;-87
2023/08/28 12:23:04;68042.00;0.23;118.38;0.00;0.00;0.62;;;;;19.30;9.90;;;;;;2264987;61;1012;-86
2023/08/28 12:25:34;112162.00;0.37;194.56;0.00;0.00;0.62;;;;;19.70;7.00;;;;;;2265142;61;1010;-85
2023/08/28 12:28:08;33060.00;0.11;57.88;0.00;0.00;0.62;;;;;20.20;6.30;;;;;;2265028;61;1184;-86
2023/08/28 12:30:35;360746.00;1.20;622.33;0.00;0.00;0.62;;;;;20.50;5.10;;;;;;2265098;61;1309;-88
2023/08/28 12:33:04;484208.00;1.61;834.64;45978.00;0.15;80.23;;;;;20.70;4.60;;;;;;2265166;61;1067;-86
2023/08/28 12:35:38;621235.00;2.07;1070.90;47317.00;0.16;82.55;;;;;20.60;5.00;;;;;;2265123;61;1120;-87
2023/08/28 12:38:05;149177.00;0.50;258.39;0.00;0.00;0.62;;;;;20.30;5.10;;;;;;2265092;61;1060;-87
2023/08/28 12:40:36;22944.00;0.08;40.37;0.00;0.00;0.62;;;;;20.20;4.20;;;;;;2264899;61;2000;-86
2023/08/28 12:43:08;127842.00;0.43;221.61;0.00;0.00;0.62;;;;;19.50;5.60;;;;;;2265054;61;1001;-89
2023/08/28 12:45:35;314580.00;1.05;542.98;22756.00;0.08;40.04;;;;;19.00;6.40;;;;;;2265095;61;1711;-87
2023/08/28 12:48:02;674400.00;2.25;1162.87;146026.00;0.49;252.96;;;;;18.70;7.70;;;;;;2265210;61;1102;-88
2023/08/28 12:53:04;961796.00;3.21;1664.92;0.00;0.00;0.62;;;;;18.20;9.50;;;;;;2262710;61;1416;-89
2023/08/28 12:55:31;42909.00;0.14;74.92;0.00;0.00;0.62;;;;;17.80;12.40;;;;;;2261087;61;1252;-89
2023/08/28 12:57:58;100570.00;0.34;174.56;14033.00;0.05;24.94;;;;;17.40;13.60;;;;;;2261072;61;1476;-87
2023/08/28 13:00:25;271119.00;0.90;468.27;49315.00;0.16;86.00;;;;;17.00;16.20;;;;;;2261095;61;1436;-87
2023/08/28 13:02:52;175319.00;0.58;303.43;0.00;0.00;0.62;;;;;16.90;16.50;;;;;;2261038;61;1984;-88
2023/08/28 13:05:19;194984.00;0.65;337.29;70078.00;0.23;121.90;;;;;16.80;18.80;;;;;;2291808;40;3760;-87
2023/08/28 13:07:47;0.00;0.00;0.62;0.00;0.00;0.62;;;;;16.50;20.70;;;;;;2268971;61;1156;-88
2023/08/28 13:10:17;130983.00;0.44;227.02;0.00;0.00;0.62;;;;;16.50;19.10;;;;;;2287056;40;3766;-88
2023/08/28 13:12:44;234443.00;0.78;405.19;0.00;0.00;0.62;;;;;16.40;18.70;;;;;;2278073;55;3849;-87
2023/08/28 13:15:11;124619.00;0.42;216.05;0.00;0.00;0.62;;;;;16.70;19.70;;;;;;2268859;61;1650;-90
2023/08/28 13:20:10;1253175.00;4.18;2186.66;0.00;0.00;0.62;;;;;17.40;18.10;;;;;;1978854;40;3417;-87
2023/08/28 13:22:37;220840.00;0.74;381.79;0.00;0.00;0.62;;;;;18.00;16.20;;;;;;2268689;61;1939;-89
2023/08/28 13:37:35;1135169.00;3.78;1973.43;0.00;0.00;0.62;;;;;19.20;11.30;;;;;;2273864;40;3508;-87
2023/08/28 13:40:02;440944.00;1.47;760.21;0.00;0.00;0.62;;;;;19.50;11.20;;;;;;2282873;41;3544;-87
2023/08/28 13:44:58;947951.00;3.16;1640.50;0.00;0.00;0.62;;;;;20.00;9.80;;;;;;2301986;56;3638;-86
2023/08/28 13:47:25;184581.00;0.62;319.38;0.00;0.00;0.62;;;;;19.60;8.80;;;;;;2268873;61;1590;-91
2023/08/28 13:49:52;166737.00;0.56;288.65;0.00;0.00;0.62;;;;;19.50;9.40;;;;;;2268796;61;1617;-87
2023/08/28 13:52:19;72910.00;0.24;126.79;0.00;0.00;0.62;;;;;19.30;10.30;;;;;;2268829;61;1738;-88
2023/08/28 13:54:47;130514.00;0.44;226.22;0.00;0.00;0.62;;;;;19.60;11.50;;;;;;2269038;61;1065;-86
2023/08/28 13:57:14;122423.00;0.41;212.26;0.00;0.00;0.62;;;;;19.90;7.70;;;;;;2268958;61;1090;-87
2023/08/28 13:59:41;138695.00;0.46;240.32;0.00;0.00;0.62;;;;;20.10;9.70;;;;;;2268902;61;1131;-87
2023/08/28 14:02:08;283459.00;0.94;489.48;135512.00;0.45;234.83;;;;;19.70;8.20;;;;;;2268815;61;1919;-86
2023/08/28 14:04:35;77119.00;0.26;134.06;0.00;0.00;0.62;;;;;19.60;9.30;;;;;;2268938;61;1111;-86
2023/08/28 14:07:01;188255.00;0.63;325.70;0.00;0.00;0.62;;;;;19.80;8.50;;;;;;2268876;61;956;-86
2023/08/28 14:09:28;161806.00;0.54;280.15;0.00;0.00;0.62;;;;;19.80;8.70;;;;;;2268804;61;1143;-86
2023/08/28 14:11:57;156914.00;0.52;271.72;0.00;0.00;0.62;;;;;19.20;10.60;;;;;;2268839;61;1317;-87
2023/08/28 14:14:24;18068.00;0.06;31.92;0.00;0.00;0.62;;;;;19.30;11.30;;;;;;2268902;61;1109;-87
2023/08/28 14:16:50;93482.00;0.31;162.32;0.00;0.00;0.62;;;;;19.50;8.90;;;;;;2268740;61;1079;-86
2023/08/28 14:19:17;199470.00;0.66;345.01;0.00;0.00;0.62;;;;;19.00;7.50;;;;;;2268913;61;1110;-86
2023/08/28 14:21:44;219585.00;0.73;379.63;4810.00;0.02;8.96;;;;;19.20;9.60;;;;;;2268725;61;1915;-86
2023/08/28 14:26:39;870908.00;2.90;1505.08;0.00;0.00;0.62;;;;;19.10;8.80;;;;;;2270651;61;1477;-87
2023/08/28 14:29:07;176793.00;0.59;305.97;0.00;0.00;0.62;;;;;18.90;9.20;;;;;;2268700;61;970;-86
2023/08/28 14:31:34;225464.00;0.75;389.74;32224.00;0.11;56.43;;;;;18.90;7.70;;;;;;2268651;61;1278;-85
2023/08/28 14:34:01;132674.00;0.44;229.94;0.00;0.00;0.62;;;;;19.00;8.20;;;;;;2268740;61;923;-87
2023/08/28 14:36:28;190915.00;0.64;330.28;0.00;0.00;0.62;;;;;19.20;7.20;;;;;;2268733;61;1139;-86
2023/08/28 14:38:55;182415.00;0.61;315.65;30358.00;0.10;53.20;;;;;19.00;8.20;;;;;;2268776;61;980;-86
2023/08/28 14:41:22;191217.00;0.64;330.80;0.00;0.00;0.62;;;;;18.90;7.90;;;;;;2268632;61;2014;-86
2023/08/28 14:43:49;109759.00;0.37;190.41;0.00;0.00;0.62;;;;;18.90;5.40;;;;;;2268635;61;1072;-85
2023/08/28 14:46:17;152852.00;0.51;264.72;0.00;0.00;0.62;;;;;18.80;7.60;;;;;;2268689;61;1032;-85
2023/08/28 14:48:44;377880.00;1.26;651.78;67360.00;0.22;117.20;;;;;18.70;5.90;;;;;;2268548;61;1099;-85
2023/08/28 14:51:11;216246.00;0.72;373.88;0.00;0.00;0.62;;;;;18.70;5.20;;;;;;2268352;61;1382;-86
2023/08/28 14:53:38;534238.00;1.78;920.79;30876.00;0.10;54.10;;;;;18.70;6.40;;;;;;2268554;61;1238;-87
2023/08/28 14:56:05;241965.00;0.81;418.13;56642.00;0.19;98.67;;;;;18.70;6.90;;;;;;2268581;61;1047;-85
2023/08/28 14:58:32;196789.00;0.66;340.40;0.00;0.00;0.62;;;;;18.70;5.20;;;;;;2268545;61;1583;-86
2023/08/28 15:00:59;228038.00;0.76;394.17;29620.00;0.10;51.93;;;;;18.70;3.60;;;;;;2268554;61;1345;-85
2023/08/28 15:03:28;381723.00;1.27;658.39;57492.00;0.19;100.14;;;;;18.70;2.60;;;;;;2268604;61;1924;-85
2023/08/28 15:05:55;173643.00;0.58;300.54;0.00;0.00;0.62;;;;;18.40;1.90;;;;;;2271014;40;3597;-86